Overview Statistics Trail Chart Weather Telemetry Raw packets
 

This is the latest recevied weather packets stored in our database for station/object YB2VNE-13. If no packets are shown the sender has not sent any weather packets the latest 10 day(s).

<< 80 81 82 83 84 85 86 >>
Time Temp. Humidity Pressure Rain* Wind** Luminosity Snow
1787829153 27.78° C 62% 1000 hPa - - 0 W/m² -
1787828843 27.78° C 62% 999 hPa - - 0 W/m² -
1787828533 28.33° C 60% 999 hPa - - 0 W/m² -
1787828223 27.78° C 61% 999 hPa - - 0 W/m² -
1787827913 27.78° C 62% 999 hPa - - 0 W/m² -
1787827603 27.78° C 62% 999 hPa - - 0 W/m² -
1787827293 27.78° C 61% 999 hPa - - 0 W/m² -
1787826983 28.33° C 60% 999 hPa - - 0 W/m² -
1787826673 28.33° C 60% 999 hPa - - 0 W/m² -
1787826363 28.33° C 59% 999 hPa - - 0 W/m² -
1787826053 28.33° C 58% 999 hPa - - 0 W/m² -
1787825743 28.33° C 58% 999 hPa - - 0 W/m² -
1787825433 28.33° C 58% 999 hPa - - 0 W/m² -
1787825123 28.33° C 57% 999 hPa - - 0 W/m² -
1787824813 28.89° C 56% 999 hPa - - 0 W/m² -
1787824503 28.89° C 56% 999 hPa - - 0 W/m² -
1787824193 29.44° C 55% 999 hPa - - 0 W/m² -
1787823883 29.44° C 54% 999 hPa - - 0 W/m² -
1787823573 29.44° C 53% 998 hPa - - 0 W/m² -
1787823263 31.11° C 49% 998 hPa - - 0 W/m² -
1787822953 32.78° C 45% 998 hPa - - 0 W/m² -
1787822643 29.44° C 52% 998 hPa - - 0 W/m² -
1787822333 30° C 51% 998 hPa - - 0 W/m² -
1787822023 29.44° C 53% 998 hPa - - 0 W/m² -
1787821713 29.44° C 53% 998 hPa - - 0 W/m² -

* Rain since midnight (hover to see other rain measurements)
** Current wind speed in m/s (hover to see current wind gust speed)